Time;durP1;ratioP1;P1;durP2;ratioP2;P2;SDS_P1;SDS_P2;PMS_P1;PMS_P2;Temp;Humidity;BMP_temperature;BMP_pressure;BME280_temperature;BME280_humidity;BME280_pressure;Samples;Min_cycle;Max_cycle;Signal;HPM_P1;HPM_P2
2021/03/31 00:01:20;;;;;;;16.60;10.80;;;11.50;99.90;;;;;;4998275;28;20640;-65
2021/03/31 00:03:46;;;;;;;14.35;10.40;;;11.50;1.00;;;;;;4997775;28;20628;-65
2021/03/31 00:06:11;;;;;;;14.37;10.80;;;11.20;1.00;;;;;;4997868;28;20258;-65
2021/03/31 00:08:38;;;;;;;13.47;9.17;;;11.30;99.70;;;;;;4997955;28;20238;-65
2021/03/31 00:11:05;;;;;;;11.80;8.95;;;11.30;94.90;;;;;;4997805;28;20608;-65
2021/03/31 00:13:30;;;;;;;14.68;9.65;;;11.30;98.40;;;;;;4997815;28;20255;-65
2021/03/31 00:15:57;;;;;;;14.17;10.07;;;11.30;99.90;;;;;;4997759;28;20270;-65
2021/03/31 00:18:23;;;;;;;17.02;11.60;;;11.20;99.90;;;;;;4997635;28;20566;-65
2021/03/31 00:20:50;;;;;;;17.63;9.93;;;11.20;99.90;;;;;;4997646;28;20187;-65
2021/03/31 00:23:20;;;;;;;16.33;9.88;;;11.20;99.90;;;;;;4996350;28;20179;-65
2021/03/31 00:25:45;;;;;;;13.32;10.10;;;11.30;99.90;;;;;;4997495;28;20222;-65
2021/03/31 00:28:11;;;;;;;12.43;9.97;;;11.00;1.00;;;;;;4998767;28;20180;-65
2021/03/31 00:30:38;;;;;;;13.80;10.55;;;10.70;1.00;;;;;;4998603;28;20171;-65
2021/03/31 00:33:04;;;;;;;14.18;9.05;;;10.70;99.90;;;;;;4997943;28;20180;-65
2021/03/31 00:35:30;;;;;;;14.73;9.82;;;10.70;32.00;;;;;;4997572;28;20464;-65
2021/03/31 00:37:56;;;;;;;15.73;9.80;;;10.80;99.90;;;;;;4997197;28;20206;-65
2021/03/31 00:40:26;;;;;;;17.50;9.67;;;10.70;1.00;;;;;;4997259;28;20183;-65
2021/03/31 00:42:52;;;;;;;14.98;9.98;;;10.60;99.90;;;;;;4997278;28;20937;-65
2021/03/31 00:45:17;;;;;;;18.03;11.07;;;10.30;99.90;;;;;;4996953;28;20199;-65
2021/03/31 00:47:43;;;;;;;14.30;10.33;;;10.30;1.00;;;;;;5012372;28;20187;-65
2021/03/31 00:50:16;;;;;;;16.20;11.05;;;10.30;1.00;;;;;;4997260;28;20540;-65
2021/03/31 00:52:42;;;;;;;18.27;11.15;;;10.30;1.00;;;;;;4997451;28;20186;-65
2021/03/31 00:55:10;;;;;;;17.52;11.25;;;10.20;99.90;;;;;;4996631;28;20198;-65
2021/03/31 00:57:36;;;;;;;16.42;10.23;;;10.20;99.90;;;;;;4995794;28;20190;-65
2021/03/31 01:00:04;;;;;;;13.30;9.85;;;10.00;99.90;;;;;;4996927;28;20175;-65
2021/03/31 01:02:30;;;;;;;14.68;11.38;;;10.10;99.90;;;;;;4996770;28;20187;-65
2021/03/31 01:04:56;;;;;;;16.10;10.53;;;10.30;99.90;;;;;;4996630;28;20221;-67
2021/03/31 01:07:21;;;;;;;11.82;9.77;;;10.50;22.50;;;;;;4996729;28;20192;-68
2021/03/31 01:09:48;;;;;;;18.73;11.40;;;10.50;1.00;;;;;;4996757;28;20633;-68
2021/03/31 01:12:25;;;;;;;17.27;11.95;;;10.40;1.00;;;;;;4996609;28;20265;-65
2021/03/31 01:15:16;;;;;;;17.80;11.32;;;10.20;99.90;;;;;;4996436;28;20256;-65
2021/03/31 01:18:02;;;;;;;16.40;11.65;;;10.20;99.90;;;;;;4996611;28;20183;-65
2021/03/31 01:21:05;;;;;;;18.58;11.15;;;10.30;12.30;;;;;;4996665;28;20624;-65
2021/03/31 01:24:11;;;;;;;18.35;11.10;;;10.60;99.90;;;;;;4996473;28;20237;-65
2021/03/31 01:26:51;;;;;;;15.55;9.60;;;10.70;1.00;;;;;;4955986;28;20680;-66
2021/03/31 01:29:58;;;;;;;15.65;10.82;;;10.60;20.90;;;;;;4956509;29;20203;-65
2021/03/31 01:32:51;;;;;;;17.38;11.13;;;10.40;99.90;;;;;;4947836;29;20567;-63
2021/03/31 01:35:19;;;;;;;19.45;12.27;;;10.20;99.90;;;;;;4955470;29;20181;-63
2021/03/31 01:37:50;;;;;;;14.73;10.05;;;10.20;99.90;;;;;;4975621;28;20594;-63
2021/03/31 01:40:20;;;;;;;16.67;11.80;;;10.20;99.90;;;;;;4996241;28;20178;-63
2021/03/31 01:43:00;;;;;;;18.48;11.50;;;10.30;88.70;;;;;;4996147;28;20172;-63
2021/03/31 01:45:30;;;;;;;18.05;10.88;;;10.20;99.90;;;;;;4996006;28;20206;-63
2021/03/31 01:47:59;;;;;;;18.17;11.65;;;10.10;99.90;;;;;;4995959;28;20203;-68
2021/03/31 01:50:26;;;;;;;17.52;10.93;;;10.00;1.00;;;;;;4996005;28;20185;-68
2021/03/31 01:52:52;;;;;;;14.60;11.13;;;10.00;1.00;;;;;;4995905;28;20172;-68
2021/03/31 01:55:18;;;;;;;15.77;11.90;;;10.00;1.00;;;;;;4995627;28;20248;-68
2021/03/31 01:57:45;;;;;;;15.10;11.50;;;9.90;99.90;;;;;;4995810;28;20634;-68
2021/03/31 02:00:16;;;;;;;15.07;10.77;;;9.90;99.90;;;;;;5011105;28;20194;-68
2021/03/31 02:02:47;;;;;;;14.98;11.10;;;9.70;1.00;;;;;;4995684;28;20623;-68
2021/03/31 02:05:14;;;;;;;17.02;9.88;;;9.80;1.00;;;;;;4994361;28;20657;-65
2021/03/31 02:07:41;;;;;;;14.93;10.57;;;9.80;99.90;;;;;;4995327;28;20208;-67
2021/03/31 02:10:11;;;;;;;16.58;11.27;;;9.30;99.90;;;;;;4995576;28;20281;-67
2021/03/31 02:12:39;;;;;;;15.07;10.15;;;9.20;99.90;;;;;;4995779;28;20197;-64
2021/03/31 02:15:06;;;;;;;23.20;11.25;;;9.30;99.90;;;;;;4995260;28;20198;-64
2021/03/31 02:17:34;;;;;;;17.95;11.38;;;9.40;1.00;;;;;;4996088;28;20176;-69
2021/03/31 02:20:01;;;;;;;15.77;11.25;;;9.40;1.00;;;;;;4995425;28;20214;-67
2021/03/31 02:22:27;;;;;;;16.27;11.10;;;9.40;1.00;;;;;;4995432;28;20564;-67
2021/03/31 02:24:53;;;;;;;19.15;12.13;;;9.40;1.00;;;;;;4995199;28;20206;-67
2021/03/31 02:27:19;;;;;;;21.13;13.70;;;9.30;1.00;;;;;;4995548;28;20639;-67
2021/03/31 02:29:46;;;;;;;15.43;12.20;;;9.30;99.90;;;;;;4995227;28;20187;-67
2021/03/31 02:32:14;;;;;;;15.13;11.90;;;9.30;99.90;;;;;;4994251;28;20187;-67
2021/03/31 02:34:41;;;;;;;15.93;10.90;;;9.30;1.00;;;;;;4994909;28;20168;-67
2021/03/31 02:37:07;;;;;;;19.27;10.70;;;9.30;99.90;;;;;;4995119;28;20171;-67
2021/03/31 02:39:36;;;;;;;15.93;10.90;;;9.30;99.90;;;;;;4995031;28;20286;-67
2021/03/31 02:42:02;;;;;;;13.95;9.77;;;9.20;1.00;;;;;;4994934;28;20465;-67
2021/03/31 02:44:30;;;;;;;14.90;10.95;;;9.10;99.90;;;;;;4994531;28;20294;-66
2021/03/31 02:46:59;;;;;;;20.08;12.20;;;9.10;99.90;;;;;;4994934;28;20589;-66
2021/03/31 02:49:28;;;;;;;15.30;12.10;;;9.00;1.00;;;;;;4994833;28;20186;-67
2021/03/31 02:51:55;;;;;;;20.73;11.45;;;9.00;1.00;;;;;;4994674;28;20242;-67
2021/03/31 02:54:22;;;;;;;19.55;11.65;;;9.00;1.00;;;;;;4994565;28;20182;-67
2021/03/31 02:56:48;;;;;;;14.40;11.00;;;9.00;1.00;;;;;;4994732;28;20186;-67
2021/03/31 02:59:15;;;;;;;18.60;11.37;;;9.00;1.00;;;;;;4994777;28;20183;-67
2021/03/31 03:01:42;;;;;;;18.65;11.63;;;8.80;1.00;;;;;;4994563;28;20430;-68
2021/03/31 03:04:08;;;;;;;18.33;11.25;;;8.60;46.20;;;;;;4994222;28;20607;-66
2021/03/31 03:06:34;;;;;;;18.90;12.75;;;8.40;99.90;;;;;;4994538;28;20616;-66
2021/03/31 03:09:03;;;;;;;16.90;11.80;;;8.50;99.90;;;;;;4994463;28;20189;-66
2021/03/31 03:11:29;;;;;;;18.05;11.60;;;8.40;99.90;;;;;;4994463;28;20184;-66
2021/03/31 03:13:56;;;;;;;22.27;12.82;;;8.30;99.90;;;;;;4995040;28;20213;-66
2021/03/31 03:16:22;;;;;;;19.20;12.38;;;8.20;99.90;;;;;;4995689;28;20404;-67
2021/03/31 03:18:48;;;;;;;18.63;12.52;;;8.00;99.90;;;;;;4994420;28;20180;-66
2021/03/31 03:21:14;;;;;;;17.70;12.60;;;8.00;1.00;;;;;;4993292;28;20183;-66
2021/03/31 03:23:42;;;;;;;17.08;12.20;;;7.90;1.00;;;;;;4994017;28;20191;-66
2021/03/31 03:26:10;;;;;;;25.73;12.43;;;8.00;99.90;;;;;;5009706;28;20218;-66
2021/03/31 03:28:39;;;;;;;16.65;12.88;;;8.10;99.90;;;;;;4994405;28;20509;-66
2021/03/31 03:31:06;;;;;;;17.92;11.57;;;7.90;99.90;;;;;;4994335;28;20214;-66
2021/03/31 03:33:32;;;;;;;18.02;11.88;;;8.00;99.90;;;;;;4994019;28;20183;-66
2021/03/31 03:35:58;;;;;;;18.90;11.50;;;8.00;1.00;;;;;;4994604;28;20467;-66
2021/03/31 03:38:24;;;;;;;18.52;11.85;;;7.90;1.00;;;;;;4994063;28;20236;-66
2021/03/31 03:40:50;;;;;;;21.27;13.07;;;7.90;99.90;;;;;;4994204;28;20210;-66
2021/03/31 03:43:16;;;;;;;17.70;11.30;;;7.90;1.00;;;;;;4994052;28;20241;-66
2021/03/31 03:45:43;;;;;;;15.15;11.68;;;7.90;1.00;;;;;;4994104;28;20257;-66
2021/03/31 03:48:09;;;;;;;17.67;11.57;;;8.00;1.00;;;;;;4994102;28;20193;-67
2021/03/31 03:50:35;;;;;;;15.65;10.52;;;8.10;1.00;;;;;;4994038;28;20512;-66
2021/03/31 03:53:02;;;;;;;15.20;11.33;;;8.00;1.00;;;;;;4994224;28;20171;-67
2021/03/31 03:55:27;;;;;;;16.67;12.25;;;8.10;1.00;;;;;;4994048;28;20202;-67
2021/03/31 03:57:54;;;;;;;19.10;12.23;;;8.10;99.90;;;;;;4995227;28;20198;-67
2021/03/31 04:00:23;;;;;;;17.17;12.57;;;8.10;1.00;;;;;;4994195;28;20553;-65
2021/03/31 04:02:52;;;;;;;22.15;12.88;;;8.10;1.00;;;;;;4994127;28;20520;-64
2021/03/31 04:05:18;;;;;;;22.75;11.93;;;8.00;1.00;;;;;;4993720;28;20542;-66
2021/03/31 04:07:44;;;;;;;15.40;10.93;;;8.00;1.00;;;;;;4996921;28;20198;-66
2021/03/31 04:10:11;;;;;;;20.60;12.00;;;7.90;1.00;;;;;;4997463;28;20259;-66
2021/03/31 04:12:38;;;;;;;18.67;12.18;;;8.00;1.00;;;;;;4996194;28;20464;-66
2021/03/31 04:15:05;;;;;;;19.25;12.05;;;8.20;99.90;;;;;;4993908;28;20187;-66
2021/03/31 04:17:34;;;;;;;17.10;12.63;;;8.30;1.00;;;;;;4994406;28;20237;-66
2021/03/31 04:20:00;;;;;;;18.02;11.82;;;8.30;99.90;;;;;;5009596;28;20194;-66
2021/03/31 04:22:26;;;;;;;17.20;12.40;;;8.30;99.90;;;;;;4993924;28;20261;-66
2021/03/31 04:24:51;;;;;;;19.87;12.17;;;8.20;99.90;;;;;;4993828;28;20290;-66
2021/03/31 04:27:18;;;;;;;18.03;10.93;;;8.20;99.90;;;;;;4995581;28;20183;-66
2021/03/31 04:29:45;;;;;;;17.30;12.23;;;8.20;1.00;;;;;;4994814;28;20175;-66
2021/03/31 04:32:18;;;;;;;17.15;11.98;;;8.10;1.00;;;;;;4997776;28;20179;-66
2021/03/31 04:34:44;;;;;;;21.80;12.43;;;8.10;1.00;;;;;;4999486;28;20358;-66
2021/03/31 04:37:10;;;;;;;16.80;11.82;;;8.20;1.00;;;;;;4998783;28;20183;-63
2021/03/31 04:39:37;;;;;;;17.42;12.00;;;8.20;1.00;;;;;;4997666;28;20452;-63
2021/03/31 04:42:04;;;;;;;19.92;11.45;;;8.20;1.00;;;;;;4997803;28;20174;-63
2021/03/31 04:44:30;;;;;;;17.80;13.10;;;8.30;99.90;;;;;;4997437;28;20312;-63
2021/03/31 04:46:55;;;;;;;19.10;12.90;;;8.20;20.50;;;;;;4997562;28;20191;-63
2021/03/31 04:49:21;;;;;;;18.90;12.73;;;8.30;99.90;;;;;;4997946;28;20186;-63
2021/03/31 04:51:46;;;;;;;23.60;11.83;;;8.30;99.90;;;;;;4998087;28;20205;-63
2021/03/31 04:54:12;;;;;;;17.47;10.50;;;8.20;1.00;;;;;;4998391;28;20697;-63
2021/03/31 04:56:37;;;;;;;21.10;13.27;;;8.10;1.00;;;;;;4997885;28;20187;-63
2021/03/31 04:59:03;;;;;;;17.87;11.50;;;8.20;99.90;;;;;;4997935;28;20274;-63
2021/03/31 05:01:28;;;;;;;16.30;10.60;;;8.10;99.90;;;;;;4998466;28;20189;-63
2021/03/31 05:03:54;;;;;;;15.17;10.13;;;8.00;99.90;;;;;;4998352;28;20199;-63
2021/03/31 05:06:19;;;;;;;15.87;10.13;;;8.00;1.00;;;;;;4998949;28;20229;-63
2021/03/31 05:08:45;;;;;;;16.00;10.77;;;8.00;1.00;;;;;;5001679;28;20206;-63
2021/03/31 05:11:11;;;;;;;16.13;10.70;;;8.00;99.90;;;;;;5001831;28;20183;-63
2021/03/31 05:13:36;;;;;;;14.50;9.90;;;7.80;1.00;;;;;;5001751;28;20258;-63
2021/03/31 05:16:02;;;;;;;13.37;10.17;;;7.80;1.00;;;;;;5000827;28;20437;-61
2021/03/31 05:18:28;;;;;;;16.17;9.83;;;7.70;99.90;;;;;;5001894;28;20624;-64
2021/03/31 05:20:53;;;;;;;15.90;9.83;;;7.80;1.00;;;;;;5002339;28;20181;-64
2021/03/31 05:23:19;;;;;;;13.47;9.57;;;8.00;1.00;;;;;;5001921;28;20323;-63
2021/03/31 05:25:44;;;;;;;17.07;10.23;;;8.20;99.90;;;;;;5003400;28;20214;-64
2021/03/31 05:28:10;;;;;;;13.83;9.33;;;8.30;99.90;;;;;;4999690;28;20197;-64
2021/03/31 05:30:35;;;;;;;14.90;8.63;;;8.70;1.00;;;;;;4998821;28;20171;-68
2021/03/31 05:33:01;;;;;;;13.00;9.80;;;9.30;99.90;;;;;;4997265;28;20186;-68
2021/03/31 05:35:27;;;;;;;17.57;10.70;;;10.00;1.00;;;;;;4997569;28;20486;-63
2021/03/31 05:37:52;;;;;;;15.00;9.50;;;10.40;99.90;;;;;;4998339;28;20206;-63
2021/03/31 05:40:18;;;;;;;16.50;10.40;;;10.70;99.90;;;;;;4998495;28;20327;-63
2021/03/31 05:42:44;;;;;;;22.20;11.60;;;10.90;1.00;;;;;;4997903;28;20580;-64
2021/03/31 05:45:12;;;;;;;15.98;11.07;;;11.20;1.00;;;;;;4998192;28;20200;-63
2021/03/31 05:47:45;;;;;;;13.60;9.60;;;11.40;1.00;;;;;;5012684;28;20220;-64
2021/03/31 05:50:16;;;;;;;14.65;9.85;;;11.30;1.00;;;;;;4996734;28;20270;-63
2021/03/31 05:52:44;;;;;;;18.45;11.05;;;11.20;1.00;;;;;;4997285;28;20589;-63
2021/03/31 05:55:12;;;;;;;16.02;10.02;;;11.90;99.90;;;;;;4997619;28;20470;-63
2021/03/31 05:57:38;;;;;;;15.23;9.70;;;13.00;99.90;;;;;;5007190;28;20194;-63
2021/03/31 06:00:07;;;;;;;15.93;10.20;;;14.30;1.00;;;;;;5010035;28;20585;-64
2021/03/31 06:02:34;;;;;;;17.10;10.98;;;15.70;1.00;;;;;;5012057;28;20218;-64
2021/03/31 06:05:00;;;;;;;13.80;9.93;;;16.70;1.00;;;;;;5016916;28;20237;-64
2021/03/31 06:07:26;;;;;;;15.55;10.63;;;17.30;1.00;;;;;;5017402;28;20469;-64
2021/03/31 06:10:10;;;;;;;17.73;9.93;;;17.50;1.00;;;;;;5016484;28;20258;-64
2021/03/31 06:12:41;;;;;;;17.98;10.30;;;17.10;1.00;;;;;;5030161;28;20983;-64
2021/03/31 06:15:31;;;;;;;12.02;10.50;;;17.10;1.00;;;;;;5014102;28;20238;-64
2021/03/31 06:18:09;;;;;;;15.68;10.85;;;16.70;1.00;;;;;;5014921;28;20171;-67
2021/03/31 06:20:45;;;;;;;16.40;10.15;;;16.90;1.00;;;;;;5015413;28;20183;-67
2021/03/31 06:23:58;;;;;;;14.50;10.43;;;17.50;1.00;;;;;;5015097;28;20180;-67
2021/03/31 06:26:32;;;;;;;15.25;9.70;;;17.30;1.00;;;;;;5015227;28;20645;-67
2021/03/31 06:29:05;;;;;;;15.10;9.63;;;16.90;1.00;;;;;;5015175;28;20185;-67
2021/03/31 06:31:37;;;;;;;15.38;9.27;;;16.90;1.00;;;;;;5015081;28;20171;-67
2021/03/31 06:34:05;;;;;;;12.40;9.93;;;16.70;1.00;;;;;;5014572;28;20180;-67
2021/03/31 06:36:45;;;;;;;16.83;11.27;;;17.30;1.00;;;;;;5014994;28;20176;-67
2021/03/31 06:39:21;;;;;;;15.25;11.30;;;16.70;1.00;;;;;;5011569;28;20363;-67
2021/03/31 06:41:56;;;;;;;12.45;9.32;;;16.10;1.00;;;;;;5014317;28;20183;-65
2021/03/31 06:44:40;;;;;;;14.00;9.65;;;17.10;1.00;;;;;;5013927;28;20186;-67
2021/03/31 06:49:43;;;;;;;15.80;12.30;;;18.50;1.00;;;;;;5026528;28;20823;-67
2021/03/31 06:52:10;;;;;;;19.33;10.10;;;18.30;1.00;;;;;;5020193;28;20223;-68
2021/03/31 06:54:48;;;;;;;16.38;11.15;;;17.50;1.00;;;;;;5016599;28;20184;-68
2021/03/31 06:57:24;;;;;;;16.95;11.68;;;16.50;1.00;;;;;;5015972;28;20204;-67
2021/03/31 07:00:00;;;;;;;16.83;10.60;;;15.10;1.00;;;;;;5016031;28;20182;-67
2021/03/31 07:02:31;;;;;;;17.40;11.82;;;13.80;1.00;;;;;;5015372;28;20175;-67
2021/03/31 07:04:58;;;;;;;14.77;10.27;;;12.90;97.40;;;;;;5015284;28;20214;-67
2021/03/31 07:07:34;;;;;;;12.38;10.10;;;12.90;99.90;;;;;;5018562;28;20793;-67
2021/03/31 07:10:06;;;;;;;16.20;11.07;;;13.00;99.90;;;;;;5015971;28;20183;-68
2021/03/31 07:12:43;;;;;;;15.13;10.95;;;12.90;99.90;;;;;;5019837;28;20177;-68
2021/03/31 07:15:10;;;;;;;16.02;10.80;;;13.10;99.90;;;;;;5017130;28;20185;-67
2021/03/31 07:17:40;;;;;;;17.73;11.25;;;12.80;99.90;;;;;;5015967;28;20186;-67
2021/03/31 07:20:06;;;;;;;15.85;10.50;;;12.30;99.90;;;;;;5031395;28;20245;-67
2021/03/31 07:22:32;;;;;;;16.30;11.25;;;12.40;99.90;;;;;;5016522;28;20596;-67
2021/03/31 07:24:57;;;;;;;16.80;10.17;;;12.50;99.90;;;;;;5015143;28;20200;-67
2021/03/31 07:27:25;;;;;;;16.20;11.30;;;12.60;99.90;;;;;;5014712;28;20195;-63
2021/03/31 07:30:09;;;;;;;14.20;10.80;;;12.80;99.90;;;;;;5014646;28;20501;-62
2021/03/31 07:32:56;;;;;;;16.95;11.57;;;12.70;99.90;;;;;;5014554;28;20189;-65
2021/03/31 07:35:26;;;;;;;17.85;11.77;;;12.90;99.90;;;;;;5014104;28;20650;-64
2021/03/31 07:37:52;;;;;;;14.20;10.60;;;12.80;99.90;;;;;;5014245;28;20368;-66
2021/03/31 07:40:19;;;;;;;18.90;12.55;;;12.90;99.90;;;;;;5014468;28;20183;-65
2021/03/31 07:42:57;;;;;;;20.05;12.32;;;13.00;99.90;;;;;;5014099;28;20187;-64
2021/03/31 07:45:30;;;;;;;19.95;11.73;;;13.10;99.90;;;;;;5013656;28;20201;-64
2021/03/31 07:47:56;;;;;;;16.75;12.88;;;13.20;99.90;;;;;;5014175;28;20185;-64
2021/03/31 07:50:22;;;;;;;18.63;10.68;;;13.40;33.80;;;;;;5014067;28;20302;-64
2021/03/31 07:52:52;;;;;;;21.00;12.67;;;13.50;6.50;;;;;;5014130;28;20584;-63
2021/03/31 07:55:31;;;;;;;18.30;11.85;;;13.50;1.00;;;;;;5013939;28;20251;-65
2021/03/31 07:58:12;;;;;;;19.10;12.10;;;13.60;1.00;;;;;;5013820;28;20524;-66
2021/03/31 08:01:05;;;;;;;16.58;12.75;;;13.40;1.00;;;;;;5013851;28;20188;-65
2021/03/31 08:03:36;;;;;;;17.23;12.15;;;13.50;1.00;;;;;;5013826;28;20176;-65
2021/03/31 08:06:29;;;;;;;16.40;12.00;;;13.60;1.00;;;;;;5015479;28;20206;-65
2021/03/31 08:09:02;;;;;;;14.80;10.90;;;13.60;1.00;;;;;;5017736;28;20233;-65
2021/03/31 08:11:40;;;;;;;19.90;12.63;;;13.70;1.00;;;;;;5017703;28;20243;-67
2021/03/31 08:14:08;;;;;;;19.05;12.00;;;14.00;1.00;;;;;;5017614;28;20455;-65
2021/03/31 08:16:44;;;;;;;16.35;11.82;;;14.10;1.00;;;;;;5017738;28;20200;-65
2021/03/31 08:19:20;;;;;;;17.67;12.07;;;14.00;1.00;;;;;;5017885;28;20254;-65
2021/03/31 08:21:47;;;;;;;17.85;12.80;;;14.00;1.00;;;;;;5017704;28;20257;-66
2021/03/31 08:24:15;;;;;;;20.25;13.23;;;14.20;1.00;;;;;;5016212;28;20192;-66
2021/03/31 08:26:42;;;;;;;16.38;12.73;;;14.50;1.00;;;;;;5017624;28;20246;-66
2021/03/31 08:29:17;;;;;;;18.60;11.80;;;14.70;1.00;;;;;;5017422;28;20184;-66
2021/03/31 08:31:43;;;;;;;17.25;11.43;;;14.80;1.00;;;;;;5017458;28;20189;-67
2021/03/31 08:34:10;;;;;;;15.23;12.37;;;15.00;1.00;;;;;;5017138;28;20503;-66
2021/03/31 08:36:37;;;;;;;19.95;11.55;;;15.10;1.00;;;;;;5017256;28;20462;-66
2021/03/31 08:39:05;;;;;;;16.77;12.32;;;15.10;1.00;;;;;;5015900;28;20251;-66
2021/03/31 08:41:31;;;;;;;16.88;12.45;;;15.20;1.00;;;;;;5017031;28;20548;-65
2021/03/31 08:44:26;;;;;;;16.40;12.20;;;15.50;1.00;;;;;;5015708;28;20189;-64
2021/03/31 08:46:52;;;;;;;19.17;11.63;;;15.40;1.00;;;;;;5015764;28;20444;-65
2021/03/31 08:49:25;;;;;;;17.75;13.68;;;15.50;1.00;;;;;;5017143;28;20256;-64
2021/03/31 08:51:53;;;;;;;19.15;12.30;;;15.60;1.00;;;;;;5016756;28;20688;-63
2021/03/31 08:54:43;;;;;;;14.73;11.68;;;15.90;1.00;;;;;;5031944;28;20264;-63
2021/03/31 08:57:15;;;;;;;16.93;12.30;;;16.00;1.00;;;;;;5016719;28;20189;-63
2021/03/31 08:59:52;;;;;;;20.30;13.68;;;16.10;1.00;;;;;;5016824;28;20429;-63
2021/03/31 09:02:22;;;;;;;15.80;12.68;;;16.40;1.00;;;;;;5016005;28;20182;-64
2021/03/31 09:04:52;;;;;;;16.07;11.83;;;16.60;1.00;;;;;;5015313;28;20202;-63
2021/03/31 09:07:18;;;;;;;17.93;12.40;;;16.90;1.00;;;;;;5016619;28;20756;-66
2021/03/31 09:09:45;;;;;;;16.43;12.00;;;16.80;1.00;;;;;;5016849;28;20413;-64
2021/03/31 09:12:17;;;;;;;14.53;10.83;;;16.90;1.00;;;;;;5016750;28;20968;-64
2021/03/31 09:14:57;;;;;;;20.53;12.00;;;17.10;1.00;;;;;;5016530;28;20460;-63
2021/03/31 09:17:27;;;;;;;17.17;10.57;;;17.20;1.00;;;;;;5015604;28;20448;-64
2021/03/31 09:19:58;;;;;;;17.00;12.10;;;17.30;1.00;;;;;;5016586;28;20437;-64
2021/03/31 09:22:26;;;;;;;17.73;11.87;;;17.40;1.00;;;;;;5016457;28;20426;-65
2021/03/31 09:24:54;;;;;;;17.03;12.00;;;17.60;1.00;;;;;;5016242;28;20464;-65
2021/03/31 09:27:24;;;;;;;17.43;11.03;;;17.80;1.00;;;;;;5016360;28;20769;-65
2021/03/31 09:29:52;;;;;;;18.23;11.30;;;18.00;1.00;;;;;;5015023;28;20429;-65
2021/03/31 09:32:26;;;;;;;18.40;11.60;;;18.10;1.00;;;;;;5016193;28;20628;-63
2021/03/31 09:34:52;;;;;;;17.30;11.43;;;18.30;1.00;;;;;;5015990;28;20952;-63
2021/03/31 09:37:21;;;;;;;18.90;11.77;;;18.40;1.00;;;;;;5016132;28;20438;-63
2021/03/31 09:39:50;;;;;;;15.67;11.73;;;18.40;1.00;;;;;;5016145;28;20520;-63
2021/03/31 09:42:27;;;;;;;20.23;12.20;;;18.60;1.00;;;;;;5015951;28;20427;-63
2021/03/31 09:44:54;;;;;;;21.13;12.73;;;18.70;1.00;;;;;;5015968;28;20468;-63
2021/03/31 09:47:21;;;;;;;15.20;12.10;;;18.90;1.00;;;;;;5030923;28;20437;-65
2021/03/31 09:49:51;;;;;;;19.97;13.33;;;19.10;1.00;;;;;;5001772;28;20439;-64
2021/03/31 09:52:23;;;;;;;16.13;12.63;;;19.20;1.00;;;;;;5012125;28;20433;-68
2021/03/31 09:54:49;;;;;;;14.73;11.60;;;19.30;1.00;;;;;;5026175;28;20799;-68
2021/03/31 09:57:15;;;;;;;17.03;12.13;;;19.30;1.00;;;;;;5035166;28;20809;-67
2021/03/31 09:59:42;;;;;;;18.10;11.50;;;19.40;1.00;;;;;;5034691;28;20180;-65
2021/03/31 10:02:12;;;;;;;17.37;11.23;;;19.60;1.00;;;;;;5034595;28;20448;-67
2021/03/31 10:04:40;;;;;;;14.80;10.70;;;19.80;1.00;;;;;;5034678;28;20460;-65
2021/03/31 10:07:17;;;;;;;16.77;10.63;;;19.90;1.00;;;;;;5035622;28;20417;-66
2021/03/31 10:09:43;;;;;;;14.93;10.10;;;20.20;1.00;;;;;;5035664;28;20422;-67
2021/03/31 10:12:11;;;;;;;21.70;10.43;;;20.30;1.00;;;;;;5016390;28;20431;-67
2021/03/31 10:14:51;;;;;;;20.73;11.13;;;20.60;1.00;;;;;;5011902;28;20540;-67
2021/03/31 10:17:18;;;;;;;19.47;10.03;;;20.70;1.00;;;;;;5006872;28;20437;-65
2021/03/31 10:19:44;;;;;;;16.87;11.00;;;20.80;1.00;;;;;;5004390;28;20446;-66
2021/03/31 10:22:11;;;;;;;15.90;10.37;;;20.90;1.00;;;;;;4995987;28;20496;-66
2021/03/31 10:24:47;;;;;;;17.10;11.20;;;20.90;1.00;;;;;;5011532;28;20464;-66
2021/03/31 10:27:16;;;;;;;16.43;10.60;;;21.00;1.00;;;;;;5014511;28;20757;-67
2021/03/31 10:29:52;;;;;;;17.97;9.70;;;21.00;1.00;;;;;;5015230;28;20521;-67
2021/03/31 10:32:22;;;;;;;16.77;9.90;;;21.10;1.00;;;;;;5005753;28;20430;-70
2021/03/31 10:34:52;;;;;;;13.97;10.17;;;21.20;1.00;;;;;;4994083;28;20434;-70
2021/03/31 10:37:31;;;;;;;18.00;9.90;;;21.40;1.00;;;;;;4994219;28;20525;-65
2021/03/31 10:48:22;;;;;;;14.07;8.80;;;22.00;1.00;;;;;;5000205;28;20480;-66
2021/03/31 10:50:55;;;;;;;17.07;9.50;;;22.10;1.00;;;;;;4994995;28;20537;-65
2021/03/31 10:53:32;;;;;;;11.17;8.87;;;22.10;1.00;;;;;;4995005;28;20433;-68
2021/03/31 10:55:58;;;;;;;14.50;9.37;;;22.30;1.00;;;;;;4993840;28;20444;-70
2021/03/31 10:58:23;;;;;;;20.73;10.93;;;22.40;1.00;;;;;;5013216;28;20437;-69
2021/03/31 11:00:49;;;;;;;15.80;10.37;;;22.40;1.00;;;;;;5021900;28;20188;-73
2021/03/31 11:03:15;;;;;;;14.33;10.77;;;21.50;1.00;;;;;;5034223;28;20264;-69
2021/03/31 11:05:40;;;;;;;17.23;10.47;;;21.50;1.00;;;;;;5032997;28;20637;-69
2021/03/31 11:08:06;;;;;;;14.70;9.60;;;21.60;1.00;;;;;;5034080;28;20178;-66
2021/03/31 11:10:32;;;;;;;13.83;10.30;;;21.70;1.00;;;;;;5027988;28;20269;-67
2021/03/31 11:12:58;;;;;;;17.13;10.70;;;21.80;1.00;;;;;;5014143;28;20453;-67
2021/03/31 11:15:25;;;;;;;16.23;10.63;;;21.80;1.00;;;;;;5014368;28;20186;-67
2021/03/31 11:17:58;;;;;;;24.90;11.70;;;21.80;1.00;;;;;;5014220;28;20443;-68
2021/03/31 11:25:49;;;;;;;20.77;11.17;;;21.90;1.00;;;;;;4993995;28;20535;-65
2021/03/31 11:28:16;;;;;;;16.17;10.87;;;22.10;1.00;;;;;;4994135;28;20430;-65
2021/03/31 11:30:42;;;;;;;16.50;10.77;;;22.00;1.00;;;;;;4994220;28;20457;-69
2021/03/31 11:33:08;;;;;;;15.47;10.87;;;21.90;1.00;;;;;;4993935;28;20789;-70
2021/03/31 11:35:33;;;;;;;16.33;10.90;;;21.90;1.00;;;;;;4994122;28;20193;-65
2021/03/31 11:37:59;;;;;;;17.40;10.80;;;22.00;1.00;;;;;;4994427;28;20213;-66
2021/03/31 11:40:24;;;;;;;19.10;10.47;;;21.70;1.00;;;;;;4993312;28;20201;-68
2021/03/31 11:42:51;;;;;;;19.50;10.83;;;21.70;1.00;;;;;;4994259;28;20265;-67
2021/03/31 11:45:16;;;;;;;18.17;10.60;;;21.80;1.00;;;;;;4995783;28;20198;-64
2021/03/31 11:47:42;;;;;;;16.77;9.73;;;22.20;1.00;;;;;;5017274;28;20747;-66
2021/03/31 11:50:08;;;;;;;16.50;10.60;;;22.40;1.00;;;;;;5017194;28;20179;-66
2021/03/31 11:52:34;;;;;;;19.03;9.47;;;22.40;1.00;;;;;;5029571;28;20178;-65
2021/03/31 11:55:00;;;;;;;16.07;9.93;;;22.60;1.00;;;;;;5013500;28;20429;-67
2021/03/31 11:57:25;;;;;;;15.70;10.50;;;22.60;1.00;;;;;;5013595;28;20429;-67
2021/03/31 11:59:51;;;;;;;16.97;10.37;;;23.00;1.00;;;;;;5013607;28;20535;-67
2021/03/31 12:02:16;;;;;;;19.63;11.47;;;23.00;1.00;;;;;;5013237;28;20269;-67
2021/03/31 12:04:42;;;;;;;16.70;10.57;;;22.70;1.00;;;;;;5013048;28;20202;-67
2021/03/31 12:07:09;;;;;;;16.07;10.07;;;22.60;1.00;;;;;;5028984;28;20190;-67
2021/03/31 12:09:40;;;;;;;17.50;10.93;;;23.00;1.00;;;;;;5013282;28;20258;-67
2021/03/31 12:12:11;;;;;;;18.00;9.73;;;23.30;1.00;;;;;;5013333;28;20433;-69
2021/03/31 12:14:37;;;;;;;15.53;9.97;;;23.50;1.00;;;;;;5011875;28;20429;-68
2021/03/31 12:17:04;;;;;;;13.53;9.47;;;23.60;1.00;;;;;;5013177;28;20431;-67
2021/03/31 12:19:29;;;;;;;17.50;9.50;;;23.50;1.00;;;;;;5013147;28;20209;-68
2021/03/31 12:21:55;;;;;;;15.50;9.60;;;23.70;1.00;;;;;;5013897;28;20402;-67
2021/03/31 12:24:22;;;;;;;16.37;10.10;;;23.70;1.00;;;;;;5012208;28;20178;-66
2021/03/31 12:26:48;;;;;;;11.97;9.00;;;23.60;1.00;;;;;;5013538;28;20436;-67
2021/03/31 12:29:15;;;;;;;19.20;11.37;;;23.20;1.00;;;;;;5013223;28;20503;-65
2021/03/31 12:31:41;;;;;;;15.87;11.77;;;22.90;1.00;;;;;;5012969;28;20221;-68
2021/03/31 12:34:06;;;;;;;15.67;10.40;;;22.90;1.00;;;;;;5012835;28;20441;-66
2021/03/31 12:36:32;;;;;;;18.57;11.23;;;22.90;1.00;;;;;;5013626;28;20521;-68
2021/03/31 12:38:57;;;;;;;16.03;9.70;;;23.10;1.00;;;;;;5012579;28;20689;-65
2021/03/31 12:41:23;;;;;;;18.27;10.80;;;23.20;1.00;;;;;;5013245;28;20201;-67
2021/03/31 12:43:48;;;;;;;17.10;11.23;;;23.00;1.00;;;;;;5013252;28;20190;-67
2021/03/31 12:46:14;;;;;;;19.07;11.07;;;23.00;1.00;;;;;;5013095;28;20626;-68
2021/03/31 12:48:40;;;;;;;23.33;11.80;;;23.20;1.00;;;;;;5023964;28;20532;-67
2021/03/31 12:51:08;;;;;;;19.00;10.77;;;23.10;1.00;;;;;;5033247;28;20205;-67
2021/03/31 12:53:41;;;;;;;17.60;11.33;;;23.30;1.00;;;;;;5036363;28;20416;-64
2021/03/31 12:56:08;;;;;;;16.13;10.20;;;23.30;1.00;;;;;;5035592;28;20436;-68
2021/03/31 12:58:40;;;;;;;20.20;11.23;;;23.50;1.00;;;;;;5033567;28;20519;-63
2021/03/31 13:01:15;;;;;;;16.93;10.70;;;23.70;1.00;;;;;;5016593;28;20437;-68
2021/03/31 13:03:41;;;;;;;12.77;9.03;;;23.80;1.00;;;;;;5016209;28;20514;-67
2021/03/31 13:06:06;;;;;;;16.70;10.60;;;23.70;1.00;;;;;;5016006;28;20492;-68